Time;durP1;ratioP1;P1;durP2;ratioP2;P2;SDS_P1;SDS_P2;PMS_P1;PMS_P2;Temp;Humidity;BMP_temperature;BMP_pressure;BME280_temperature;BME280_humidity;BME280_pressure;Samples;Min_cycle;Max_cycle;Signal;HPM_P1;HPM_P2
2022/04/16 00:01:43;;;;;;;19.02;13.48;;;8.90;99.90;;;;;;5109356;27;20084;-68
2022/04/16 00:04:10;;;;;;;20.08;13.68;;;8.70;99.90;;;;;;5081195;28;20466;-67
2022/04/16 00:06:36;;;;;;;18.02;12.98;;;8.70;99.90;;;;;;5110561;28;20123;-67
2022/04/16 00:09:03;;;;;;;19.67;13.57;;;8.70;99.90;;;;;;5111197;27;20039;-67
2022/04/16 00:11:29;;;;;;;21.45;13.85;;;8.60;99.90;;;;;;5096228;27;20055;-68
2022/04/16 00:13:54;;;;;;;21.13;14.27;;;8.50;99.90;;;;;;5130283;27;20160;-67
2022/04/16 00:16:20;;;;;;;18.45;14.27;;;8.40;99.90;;;;;;5118239;27;20122;-67
2022/04/16 00:18:48;;;;;;;22.05;14.18;;;8.30;99.90;;;;;;5130338;27;20054;-68
2022/04/16 00:21:13;;;;;;;20.38;14.05;;;8.30;99.90;;;;;;5132974;27;20476;-67
2022/04/16 00:23:43;;;;;;;20.30;14.63;;;8.20;99.90;;;;;;5129881;27;20047;-68
2022/04/16 00:26:11;;;;;;;19.48;14.40;;;8.10;99.90;;;;;;5129500;27;20123;-67
2022/04/16 00:28:37;;;;;;;19.27;14.13;;;8.10;99.90;;;;;;5129230;27;20042;-68
2022/04/16 00:31:02;;;;;;;21.02;15.65;;;8.10;99.90;;;;;;5127017;27;20038;-67
2022/04/16 00:33:28;;;;;;;22.75;15.15;;;8.00;99.90;;;;;;5096820;27;20047;-68
2022/04/16 00:35:54;;;;;;;23.02;14.82;;;7.90;99.90;;;;;;5129459;27;20037;-68
2022/04/16 00:38:19;;;;;;;25.27;16.23;;;7.90;99.90;;;;;;5131451;27;20042;-67
2022/04/16 00:40:45;;;;;;;23.02;15.50;;;7.80;99.90;;;;;;5119161;27;20043;-67
2022/04/16 00:43:40;;;;;;;23.73;16.42;;;7.80;99.90;;;;;;5105128;27;20027;-67
2022/04/16 00:46:06;;;;;;;22.30;15.00;;;7.80;99.90;;;;;;5106533;27;20051;-67
2022/04/16 00:48:31;;;;;;;22.92;15.27;;;7.80;99.90;;;;;;5130009;27;20042;-67
2022/04/16 00:50:59;;;;;;;22.15;15.85;;;7.90;99.90;;;;;;5127823;27;20549;-67
2022/04/16 00:53:28;;;;;;;22.65;16.90;;;8.00;99.90;;;;;;5117425;27;20034;-67
2022/04/16 00:55:54;;;;;;;21.02;15.57;;;7.10;99.90;;;;;;5128914;27;20039;-67
2022/04/16 00:58:19;;;;;;;23.77;15.77;;;8.00;99.90;;;;;;5105078;28;20062;-67
2022/04/16 01:00:45;;;;;;;22.23;15.57;;;8.00;99.90;;;;;;5116498;27;20468;-67
2022/04/16 01:03:11;;;;;;;24.05;14.90;;;8.00;99.90;;;;;;5109322;27;20043;-68
2022/04/16 01:05:37;;;;;;;20.77;15.02;;;8.00;99.90;;;;;;5111626;27;20479;-68
2022/04/16 01:08:04;;;;;;;22.50;16.23;;;7.90;99.90;;;;;;5120633;27;20040;-68
2022/04/16 01:10:31;;;;;;;25.58;16.02;;;7.90;99.90;;;;;;5116156;27;20222;-67
2022/04/16 01:12:59;;;;;;;24.95;15.75;;;7.90;99.90;;;;;;5108781;28;20055;-67
2022/04/16 01:15:25;;;;;;;23.90;15.73;;;7.90;99.90;;;;;;5101033;28;20046;-67
2022/04/16 01:17:52;;;;;;;26.20;16.63;;;8.30;99.90;;;;;;5088803;28;20044;-67
2022/04/16 01:20:18;;;;;;;22.48;16.20;;;7.90;99.90;;;;;;5087818;28;20046;-67
2022/04/16 01:22:45;;;;;;;24.27;17.35;;;7.90;99.90;;;;;;5104330;28;20128;-67
2022/04/16 01:25:11;;;;;;;21.98;15.85;;;7.90;99.90;;;;;;5070453;28;20460;-67
2022/04/16 01:27:43;;;;;;;28.42;16.98;;;7.80;99.90;;;;;;5094707;28;20050;-67
2022/04/16 01:30:10;;;;;;;26.58;15.98;;;7.80;99.90;;;;;;5108882;28;20039;-67
2022/04/16 01:32:36;;;;;;;24.65;17.02;;;7.80;99.90;;;;;;5108697;28;20055;-67
2022/04/16 01:35:03;;;;;;;24.60;16.60;;;7.70;99.90;;;;;;5107886;28;20039;-67
2022/04/16 01:37:33;;;;;;;24.80;17.58;;;7.70;99.90;;;;;;5108531;28;20043;-68
2022/04/16 01:40:00;;;;;;;24.60;17.13;;;7.70;99.90;;;;;;5107147;28;20051;-67
2022/04/16 01:42:25;;;;;;;26.27;17.40;;;7.60;99.90;;;;;;5089081;28;20075;-68
2022/04/16 01:44:51;;;;;;;23.92;17.08;;;7.60;99.90;;;;;;5108145;28;20167;-67
2022/04/16 01:47:17;;;;;;;25.38;17.00;;;7.50;99.90;;;;;;5107970;28;20047;-67
2022/04/16 01:49:43;;;;;;;25.98;17.33;;;7.50;99.90;;;;;;5127793;27;20035;-68
2022/04/16 01:52:09;;;;;;;25.98;17.85;;;8.30;99.90;;;;;;5080048;28;20048;-68
2022/04/16 01:54:35;;;;;;;26.88;17.45;;;7.40;99.90;;;;;;5124489;28;20095;-67
2022/04/16 01:57:02;;;;;;;25.65;17.65;;;7.40;99.90;;;;;;5092162;28;20592;-68
2022/04/16 01:59:29;;;;;;;27.42;18.23;;;7.40;99.90;;;;;;5126733;28;20043;-67
2022/04/16 02:01:58;;;;;;;28.45;19.08;;;7.40;99.90;;;;;;5125835;28;20055;-67
2022/04/16 02:04:24;;;;;;;25.90;19.10;;;7.30;99.90;;;;;;5128279;27;20035;-67
2022/04/16 02:06:50;;;;;;;25.25;18.42;;;8.10;99.90;;;;;;5128703;28;20438;-68
2022/04/16 02:09:17;;;;;;;28.65;18.90;;;7.30;99.90;;;;;;5126653;27;20298;-67
2022/04/16 02:11:43;;;;;;;28.98;19.35;;;7.30;99.90;;;;;;5131483;27;20465;-67
2022/04/16 02:14:08;;;;;;;28.67;19.33;;;7.30;99.90;;;;;;5114196;27;20039;-67
2022/04/16 02:16:34;;;;;;;29.23;19.75;;;7.30;99.90;;;;;;5122888;27;20057;-67
2022/04/16 02:19:00;;;;;;;29.50;20.02;;;7.30;99.90;;;;;;5097582;28;20052;-67
2022/04/16 02:21:27;;;;;;;30.83;20.38;;;7.20;99.90;;;;;;5112630;27;20430;-67
2022/04/16 02:23:52;;;;;;;31.27;20.98;;;7.20;99.90;;;;;;5128717;27;20511;-68
2022/04/16 02:26:20;;;;;;;32.58;21.33;;;7.20;99.90;;;;;;5132339;27;20039;-67
2022/04/16 02:28:48;;;;;;;33.78;21.85;;;7.20;99.90;;;;;;5131448;27;20047;-67
2022/04/16 02:31:14;;;;;;;33.97;20.63;;;7.20;99.90;;;;;;5131061;27;20532;-68
2022/04/16 02:33:40;;;;;;;31.67;21.65;;;7.30;99.90;;;;;;5113242;27;20043;-68
2022/04/16 02:36:07;;;;;;;33.47;21.85;;;7.40;99.90;;;;;;5113034;27;20039;-67
2022/04/16 02:38:34;;;;;;;31.23;20.90;;;7.40;99.90;;;;;;5131985;27;20047;-68
2022/04/16 02:40:59;;;;;;;32.55;20.83;;;7.50;99.90;;;;;;5131263;27;20039;-68
2022/04/16 02:43:25;;;;;;;33.80;21.55;;;7.60;99.90;;;;;;5132911;27;20043;-68
2022/04/16 02:48:34;;;;;;;29.95;20.75;;;7.70;99.90;;;;;;5116159;27;20303;-68
2022/04/16 02:51:00;;;;;;;28.65;19.60;;;7.80;99.90;;;;;;5111672;27;20043;-68
2022/04/16 02:53:26;;;;;;;26.80;19.00;;;7.90;99.90;;;;;;5117518;27;20054;-68
2022/04/16 02:55:55;;;;;;;27.15;18.63;;;8.80;99.90;;;;;;5130869;27;20081;-68
2022/04/16 02:58:21;;;;;;;24.77;19.10;;;8.10;99.90;;;;;;5132263;27;20058;-68
2022/04/16 03:00:47;;;;;;;26.42;19.08;;;8.10;99.90;;;;;;5129137;27;20091;-68
2022/04/16 03:03:12;;;;;;;29.70;19.83;;;8.20;99.90;;;;;;5097628;28;20055;-68
2022/04/16 03:05:38;;;;;;;27.50;20.23;;;8.20;99.90;;;;;;5111621;27;20036;-68
2022/04/16 03:08:10;;;;;;;28.45;19.45;;;9.00;99.90;;;;;;5112248;27;20043;-68
2022/04/16 03:10:35;;;;;;;29.40;20.48;;;8.30;99.90;;;;;;5115076;27;20050;-68
2022/04/16 03:13:01;;;;;;;28.75;21.20;;;8.30;99.90;;;;;;5090616;27;20131;-68
2022/04/16 03:18:11;;;;;;;28.67;20.55;;;8.30;99.90;;;;;;5120981;27;20497;-68
2022/04/16 03:20:42;;;;;;;31.05;21.42;;;8.40;99.90;;;;;;5093546;27;20042;-69
2022/04/16 03:23:09;;;;;;;29.77;21.48;;;8.40;99.90;;;;;;5127594;27;20480;-69
2022/04/16 03:25:39;;;;;;;31.77;21.92;;;8.40;99.90;;;;;;5110063;27;20066;-69
2022/04/16 03:28:05;;;;;;;28.60;21.60;;;8.40;99.90;;;;;;5105743;27;20084;-66
2022/04/16 03:30:30;;;;;;;31.20;22.13;;;8.40;99.90;;;;;;5108861;27;20047;-68
2022/04/16 03:32:56;;;;;;;29.90;21.88;;;8.50;99.90;;;;;;5130060;27;20050;-68
2022/04/16 03:35:23;;;;;;;33.08;23.60;;;8.60;99.90;;;;;;5130703;27;20482;-68
2022/04/16 03:37:49;;;;;;;31.63;22.52;;;8.50;99.90;;;;;;5130845;27;20421;-68
2022/04/16 03:40:15;;;;;;;35.38;23.48;;;8.50;99.90;;;;;;5130412;27;20050;-68
2022/04/16 03:42:47;;;;;;;32.72;23.35;;;8.50;99.90;;;;;;5097752;27;20404;-69
2022/04/16 03:45:18;;;;;;;35.10;24.38;;;8.60;99.90;;;;;;5100252;28;20073;-69
2022/04/16 03:47:45;;;;;;;36.40;23.90;;;8.60;99.90;;;;;;5111044;27;20045;-69
2022/04/16 03:50:12;;;;;;;35.63;23.73;;;8.60;99.90;;;;;;5108726;28;20039;-68
2022/04/16 03:52:42;;;;;;;32.45;24.17;;;8.60;99.90;;;;;;5127046;27;20057;-68
2022/04/16 04:01:15;;;;;;;34.47;23.75;;;8.50;99.90;;;;;;5114621;27;20507;-68
2022/04/16 04:03:40;;;;;;;36.80;25.27;;;8.50;99.90;;;;;;5101010;28;20083;-69
2022/04/16 04:06:07;;;;;;;35.72;24.73;;;8.50;99.90;;;;;;5113033;27;20384;-68
2022/04/16 04:08:33;;;;;;;38.00;25.63;;;8.50;99.90;;;;;;5131776;27;20468;-68
2022/04/16 04:10:59;;;;;;;36.22;26.13;;;8.40;99.90;;;;;;5133298;27;20039;-68
2022/04/16 04:13:26;;;;;;;39.03;26.90;;;8.30;99.90;;;;;;5095147;28;20373;-68
2022/04/16 04:15:52;;;;;;;37.70;25.42;;;8.40;99.90;;;;;;5101259;27;20111;-68
2022/04/16 04:18:17;;;;;;;37.30;26.17;;;8.40;99.90;;;;;;5095109;27;20168;-68
2022/04/16 04:20:43;;;;;;;38.22;26.02;;;8.40;99.90;;;;;;5124197;27;20348;-68
2022/04/16 04:23:09;;;;;;;38.45;26.40;;;8.40;99.90;;;;;;5109870;28;20047;-68
2022/04/16 04:25:34;;;;;;;38.88;27.40;;;8.30;99.90;;;;;;5092526;28;20050;-68
2022/04/16 04:28:00;;;;;;;40.97;27.00;;;8.30;99.90;;;;;;5109728;28;20048;-68
2022/04/16 04:30:26;;;;;;;39.78;26.77;;;8.30;99.90;;;;;;5087215;28;20066;-68
2022/04/16 04:32:51;;;;;;;41.30;25.75;;;8.20;99.90;;;;;;5109312;28;20438;-68
2022/04/16 04:35:17;;;;;;;38.42;26.55;;;8.20;99.90;;;;;;5109358;28;20040;-68
2022/04/16 04:37:43;;;;;;;35.58;26.08;;;8.20;99.90;;;;;;5090604;28;20139;-68
2022/04/16 04:40:09;;;;;;;41.65;27.50;;;8.20;99.90;;;;;;5109844;27;20031;-68
2022/04/16 04:42:36;;;;;;;39.50;27.50;;;8.20;99.90;;;;;;5107072;27;20127;-68
2022/04/16 04:45:13;;;;;;;42.33;27.80;;;8.20;99.90;;;;;;5110341;27;20483;-68
2022/04/16 04:47:39;;;;;;;37.20;26.75;;;8.20;99.90;;;;;;5120060;27;20039;-68
2022/04/16 04:50:05;;;;;;;39.00;26.90;;;8.20;99.90;;;;;;5127849;27;20034;-68
2022/04/16 04:52:31;;;;;;;39.15;26.90;;;8.20;99.90;;;;;;5107631;27;20036;-68
2022/04/16 04:54:58;;;;;;;39.97;27.00;;;8.20;99.90;;;;;;5110021;27;20104;-67
2022/04/16 04:57:24;;;;;;;38.60;26.02;;;8.20;99.90;;;;;;5129051;27;20380;-68
2022/04/16 04:59:50;;;;;;;38.45;26.27;;;8.20;99.90;;;;;;5128533;27;20550;-67
2022/04/16 05:02:16;;;;;;;38.47;26.20;;;8.20;99.90;;;;;;5109842;27;20087;-68
2022/04/16 05:04:42;;;;;;;39.70;26.75;;;8.10;99.90;;;;;;5093380;27;20039;-68
2022/04/16 05:07:09;;;;;;;36.40;25.33;;;8.10;99.90;;;;;;5108317;27;20054;-68
2022/04/16 05:09:35;;;;;;;37.83;26.40;;;8.10;99.90;;;;;;5109348;28;20427;-68
2022/04/16 05:12:01;;;;;;;35.70;24.27;;;8.10;99.90;;;;;;5121962;27;20062;-68
2022/04/16 05:14:26;;;;;;;35.08;23.95;;;8.20;99.90;;;;;;5128222;27;20100;-68
2022/04/16 05:16:52;;;;;;;34.10;23.48;;;8.30;99.90;;;;;;5109637;27;20039;-68
2022/04/16 05:19:18;;;;;;;30.83;23.02;;;8.20;99.90;;;;;;5092081;27;20046;-68
2022/04/16 05:21:43;;;;;;;31.00;22.75;;;8.20;99.90;;;;;;5124306;27;20577;-68
2022/04/16 05:24:09;;;;;;;32.17;22.08;;;8.20;99.90;;;;;;5128560;27;20043;-68
2022/04/16 05:26:37;;;;;;;29.05;20.98;;;8.70;99.90;;;;;;5107813;27;20042;-68
2022/04/16 05:29:03;;;;;;;31.08;20.73;;;8.20;99.90;;;;;;5108655;28;20104;-69
2022/04/16 05:31:30;;;;;;;29.20;20.67;;;8.30;99.90;;;;;;5109712;27;20039;-68
2022/04/16 05:36:40;;;;;;;29.30;18.95;;;8.40;99.90;;;;;;5127627;27;20039;-68
2022/04/16 05:39:06;;;;;;;26.17;19.33;;;8.30;99.90;;;;;;5104220;28;20084;-68
2022/04/16 05:41:33;;;;;;;26.95;19.00;;;8.30;99.90;;;;;;5109348;28;20168;-68
2022/04/16 05:43:59;;;;;;;26.00;18.55;;;8.30;99.90;;;;;;5112563;27;20436;-68
2022/04/16 05:46:25;;;;;;;28.35;19.85;;;8.30;99.90;;;;;;5107362;27;20046;-68
2022/04/16 05:48:51;;;;;;;28.42;19.38;;;8.30;99.90;;;;;;5107261;28;20040;-69
2022/04/16 05:51:17;;;;;;;25.10;17.40;;;8.40;99.90;;;;;;5089718;28;20169;-69
2022/04/16 05:53:43;;;;;;;24.27;17.13;;;8.40;99.90;;;;;;5102052;28;20552;-68
2022/04/16 05:56:10;;;;;;;25.70;18.10;;;8.50;99.90;;;;;;5108451;28;20039;-68
2022/04/16 05:58:37;;;;;;;23.45;17.17;;;8.40;99.90;;;;;;5107887;28;20048;-67
2022/04/16 06:01:02;;;;;;;25.27;18.17;;;8.50;99.90;;;;;;5089756;28;20043;-68
2022/04/16 06:03:28;;;;;;;30.13;18.88;;;8.50;99.90;;;;;;5110427;28;20429;-68
2022/04/16 06:05:55;;;;;;;30.30;19.50;;;8.50;99.90;;;;;;5107981;28;20071;-68
2022/04/16 06:08:20;;;;;;;30.80;19.65;;;9.00;99.90;;;;;;5108650;28;20498;-68
2022/04/16 06:10:46;;;;;;;28.75;19.42;;;8.60;99.90;;;;;;5106827;28;20100;-68
2022/04/16 06:13:12;;;;;;;26.83;18.80;;;8.70;99.90;;;;;;5109125;28;20460;-68
2022/04/16 06:15:42;;;;;;;28.60;19.85;;;8.80;99.90;;;;;;5071255;28;20074;-68
2022/04/16 06:18:11;;;;;;;30.48;19.55;;;8.70;99.90;;;;;;5110720;28;20051;-69
2022/04/16 06:20:37;;;;;;;28.13;17.85;;;8.80;99.90;;;;;;5108318;28;20441;-69
2022/04/16 06:23:04;;;;;;;29.20;18.75;;;8.80;99.90;;;;;;5108959;28;20062;-68
2022/04/16 06:25:29;;;;;;;28.48;17.55;;;8.80;99.90;;;;;;5107624;28;20040;-68
2022/04/16 06:27:55;;;;;;;26.23;16.50;;;8.90;99.90;;;;;;5107419;28;20468;-68
2022/04/16 06:30:21;;;;;;;23.58;16.00;;;9.00;99.90;;;;;;5106820;28;20535;-68
2022/04/16 06:32:46;;;;;;;20.35;14.50;;;9.10;99.90;;;;;;5107539;28;20040;-68
2022/04/16 06:35:12;;;;;;;19.13;13.70;;;9.10;99.90;;;;;;5108388;28;20097;-68
2022/04/16 06:37:41;;;;;;;20.42;14.23;;;9.10;99.90;;;;;;5108803;28;20041;-68
2022/04/16 06:40:08;;;;;;;20.15;13.82;;;9.60;99.90;;;;;;5090218;28;20109;-68
2022/04/16 06:42:35;;;;;;;22.95;13.90;;;9.20;99.90;;;;;;5090372;28;20052;-68
2022/04/16 06:45:00;;;;;;;21.55;14.35;;;9.20;99.90;;;;;;5085953;28;20044;-67
2022/04/16 06:47:29;;;;;;;20.45;13.63;;;9.10;99.90;;;;;;5101017;28;20047;-67
2022/04/16 06:49:55;;;;;;;23.30;14.68;;;9.10;99.90;;;;;;5103264;28;20130;-68
2022/04/16 06:52:20;;;;;;;19.88;13.88;;;9.10;99.90;;;;;;5087484;28;20139;-68
2022/04/16 06:54:46;;;;;;;19.60;13.73;;;9.20;99.90;;;;;;5088077;28;20055;-68
2022/04/16 06:57:12;;;;;;;20.48;13.63;;;9.20;99.90;;;;;;5110962;28;20055;-68
2022/04/16 06:59:38;;;;;;;21.50;13.63;;;9.30;99.90;;;;;;5092205;28;20124;-68
2022/04/16 07:02:05;;;;;;;20.45;12.75;;;9.40;99.90;;;;;;5110275;28;20044;-69
2022/04/16 07:04:32;;;;;;;18.27;12.85;;;10.50;99.90;;;;;;5115224;27;20491;-68
2022/04/16 07:06:59;;;;;;;20.13;12.00;;;9.50;99.90;;;;;;5109894;28;20043;-69
2022/04/16 07:09:25;;;;;;;21.08;12.45;;;9.50;99.90;;;;;;5111401;28;20085;-69
2022/04/16 07:11:50;;;;;;;20.05;13.05;;;9.70;99.90;;;;;;5110254;28;20390;-69
2022/04/16 07:14:16;;;;;;;22.42;13.63;;;9.70;99.90;;;;;;5110609;28;20117;-68
2022/04/16 07:16:42;;;;;;;22.80;14.95;;;9.70;99.90;;;;;;5113598;27;20058;-68
2022/04/16 07:19:09;;;;;;;25.15;14.60;;;9.80;99.90;;;;;;5110583;28;20399;-68
2022/04/16 07:21:35;;;;;;;19.95;13.68;;;9.90;99.90;;;;;;5058066;28;20048;-68
2022/04/16 07:24:00;;;;;;;20.83;13.55;;;10.00;99.90;;;;;;5106727;27;20460;-67
2022/04/16 07:26:26;;;;;;;21.55;13.15;;;10.10;99.90;;;;;;5109493;28;20092;-67
2022/04/16 07:28:51;;;;;;;18.60;12.05;;;10.10;99.90;;;;;;5110118;28;20450;-67
2022/04/16 07:31:17;;;;;;;16.92;11.60;;;10.20;99.90;;;;;;5091089;28;20039;-68
2022/04/16 07:33:43;;;;;;;18.00;11.77;;;10.20;99.90;;;;;;5109937;28;20114;-67
2022/04/16 07:36:08;;;;;;;17.05;11.45;;;10.30;99.90;;;;;;5110814;28;20039;-68
2022/04/16 07:38:34;;;;;;;18.08;11.20;;;10.30;99.90;;;;;;5111763;27;20039;-67
2022/04/16 07:41:02;;;;;;;15.23;9.73;;;10.40;99.90;;;;;;5108970;28;20051;-74
2022/04/16 07:43:28;;;;;;;14.77;10.30;;;10.40;99.90;;;;;;5109940;28;20105;-69
2022/04/16 07:45:54;;;;;;;15.52;10.00;;;10.50;99.90;;;;;;5109371;28;20089;-69
2022/04/16 07:48:20;;;;;;;16.50;10.00;;;10.50;99.90;;;;;;5092254;28;20043;-70
2022/04/16 07:50:45;;;;;;;14.27;10.07;;;10.50;99.90;;;;;;5091625;28;20131;-68
2022/04/16 07:53:11;;;;;;;14.75;9.63;;;10.50;99.90;;;;;;5101055;27;20081;-68
2022/04/16 07:55:37;;;;;;;15.43;10.02;;;10.60;99.90;;;;;;5108513;27;20035;-69
2022/04/16 07:58:03;;;;;;;16.75;11.38;;;10.60;99.90;;;;;;5109896;28;20043;-68
2022/04/16 08:00:28;;;;;;;18.10;11.13;;;10.70;99.90;;;;;;5108762;28;20039;-69
2022/04/16 08:02:54;;;;;;;17.90;10.23;;;10.80;99.90;;;;;;5108497;28;20051;-68
2022/04/16 08:05:20;;;;;;;15.98;9.90;;;10.80;99.90;;;;;;5121762;27;20368;-68
2022/04/16 08:07:46;;;;;;;18.08;9.93;;;10.90;99.90;;;;;;5102127;27;20122;-68
2022/04/16 08:10:12;;;;;;;14.65;9.25;;;11.10;99.90;;;;;;5102945;28;20052;-69
2022/04/16 08:12:44;;;;;;;13.60;8.32;;;11.10;99.90;;;;;;5091736;28;20040;-69
2022/04/16 08:15:13;;;;;;;14.35;8.05;;;10.70;99.90;;;;;;5108841;28;20078;-69
2022/04/16 08:17:48;;;;;;;13.20;7.47;;;11.10;99.90;;;;;;5110107;28;20097;-69
2022/04/16 08:20:13;;;;;;;10.90;6.23;;;12.20;99.90;;;;;;5120470;27;20047;-67
2022/04/16 08:22:46;;;;;;;10.00;5.88;;;11.30;99.90;;;;;;5110558;27;20058;-68
2022/04/16 08:27:48;;;;;;;8.30;5.33;;;11.50;99.90;;;;;;5116774;27;20058;-68
2022/04/16 08:30:15;;;;;;;10.15;5.95;;;11.70;99.90;;;;;;5108123;28;20040;-68
2022/04/16 08:32:42;;;;;;;7.88;4.75;;;11.80;99.90;;;;;;5091012;28;20377;-68
2022/04/16 08:35:09;;;;;;;7.03;4.22;;;12.00;99.90;;;;;;5121085;27;20031;-68
2022/04/16 08:37:35;;;;;;;8.45;4.45;;;12.00;99.90;;;;;;5129519;27;20043;-68
2022/04/16 08:40:00;;;;;;;8.75;3.78;;;12.00;99.90;;;;;;5129547;27;20046;-68
2022/04/16 08:42:26;;;;;;;7.85;3.58;;;12.50;99.90;;;;;;5093784;27;20403;-69
2022/04/16 08:44:52;;;;;;;6.38;3.85;;;12.00;99.90;;;;;;5086647;28;20172;-69
2022/04/16 08:47:19;;;;;;;7.82;4.38;;;12.00;99.90;;;;;;5087833;28;20169;-68
2022/04/16 08:49:45;;;;;;;5.30;3.33;;;12.00;99.90;;;;;;5105768;27;20230;-69
2022/04/16 08:52:11;;;;;;;4.82;2.92;;;12.20;99.90;;;;;;5110783;28;20265;-68
2022/04/16 08:54:38;;;;;;;5.80;3.30;;;12.30;99.90;;;;;;5110310;28;20052;-68
2022/04/16 08:57:04;;;;;;;6.20;3.30;;;12.40;99.90;;;;;;5108973;28;20039;-68
2022/04/16 08:59:30;;;;;;;5.57;3.10;;;12.40;99.90;;;;;;5089977;28;20071;-69
2022/04/16 09:01:58;;;;;;;7.10;3.30;;;12.50;99.90;;;;;;5107929;28;20538;-67
2022/04/16 09:04:27;;;;;;;5.03;2.92;;;12.50;99.50;;;;;;5108727;28;20123;-69
2022/04/16 09:07:01;;;;;;;5.43;2.67;;;12.50;99.00;;;;;;5108363;27;20038;-69
2022/04/16 09:09:30;;;;;;;4.40;2.35;;;12.60;98.90;;;;;;5118480;27;20066;-69
2022/04/16 09:11:56;;;;;;;4.97;2.53;;;12.80;99.00;;;;;;5127694;27;20400;-69
2022/04/16 09:14:42;;;;;;;4.72;2.50;;;13.10;97.50;;;;;;5110821;27;20043;-69
2022/04/16 09:17:09;;;;;;;4.95;2.50;;;13.20;96.80;;;;;;5068968;28;20082;-69
2022/04/16 09:19:34;;;;;;;4.72;2.47;;;13.30;96.70;;;;;;5088162;27;20086;-69
2022/04/16 09:22:00;;;;;;;5.60;2.40;;;13.40;96.50;;;;;;5124773;27;20070;-66
2022/04/16 09:24:26;;;;;;;3.25;2.05;;;13.60;95.90;;;;;;5114042;27;20046;-67
2022/04/16 09:26:52;;;;;;;3.28;1.92;;;13.80;95.10;;;;;;5092426;28;20466;-67
2022/04/16 09:29:18;;;;;;;3.72;2.00;;;14.30;93.70;;;;;;5098627;28;20483;-67
2022/04/16 09:31:49;;;;;;;4.40;1.90;;;16.10;92.70;;;;;;5089417;28;20475;-67
2022/04/16 09:34:23;;;;;;;2.47;1.80;;;18.70;84.20;;;;;;5113209;27;20063;-67
2022/04/16 09:36:50;;;;;;;3.05;1.70;;;21.50;74.20;;;;;;5086115;28;20367;-67
2022/04/16 09:39:19;;;;;;;4.70;1.60;;;24.00;62.90;;;;;;5128722;27;20121;-64
2022/04/16 09:41:52;;;;;;;2.05;1.40;;;25.60;55.40;;;;;;5109227;28;20097;-66
2022/04/16 09:44:22;;;;;;;3.70;1.58;;;27.10;51.60;;;;;;5110008;27;20043;-67
2022/04/16 09:46:49;;;;;;;4.70;1.60;;;28.10;47.80;;;;;;5107379;27;20081;-66
2022/04/16 09:49:16;;;;;;;3.30;1.52;;;29.60;48.30;;;;;;5129448;27;20031;-67
2022/04/16 09:51:45;;;;;;;2.75;1.50;;;31.10;47.20;;;;;;5120460;28;20040;-68
2022/04/16 09:54:11;;;;;;;3.72;1.48;;;32.40;45.80;;;;;;5087289;28;20051;-67
2022/04/16 09:56:39;;;;;;;3.60;1.30;;;33.30;43.00;;;;;;5104259;28;20044;-67
2022/04/16 09:59:07;;;;;;;2.67;1.30;;;34.10;41.80;;;;;;5071269;28;20056;-68
2022/04/16 10:01:34;;;;;;;2.05;1.40;;;34.80;40.20;;;;;;5085649;28;20077;-67
2022/04/16 10:04:03;;;;;;;3.03;1.40;;;34.30;39.40;;;;;;5067721;28;20044;-67
2022/04/16 10:06:29;;;;;;;4.10;1.58;;;34.50;38.30;;;;;;5087458;28;20048;-67
2022/04/16 10:08:56;;;;;;;1.95;1.10;;;34.70;37.00;;;;;;5086759;28;20068;-68
2022/04/16 10:12:59;;;;;;;5.35;1.33;;;34.80;37.00;;;;;;5087704;28;20044;-67
2022/04/16 10:14:54;;;;;;;2.70;1.20;;;34.80;35.60;;;;;;5087380;28;20382;-67
2022/04/16 10:17:42;;;;;;;3.70;1.40;;;34.30;36.00;;;;;;5086937;28;20229;-67
2022/04/16 10:20:10;;;;;;;3.70;1.52;;;34.50;36.00;;;;;;5070034;28;20100;-67
2022/04/16 10:22:36;;;;;;;2.60;1.40;;;34.70;36.00;;;;;;5089281;28;20048;-66
2022/04/16 10:25:03;;;;;;;2.80;1.55;;;35.00;35.40;;;;;;5087205;28;20505;-67
2022/04/16 10:27:34;;;;;;;3.05;1.63;;;34.60;35.20;;;;;;5087265;28;20071;-68
2022/04/16 10:30:08;;;;;;;3.10;1.23;;;34.40;36.10;;;;;;5086290;28;20047;-67
2022/04/16 10:32:39;;;;;;;4.40;1.58;;;34.60;35.70;;;;;;5072926;28;20488;-67
2022/04/16 10:35:06;;;;;;;2.42;1.30;;;34.50;35.30;;;;;;5091427;28;20050;-67
2022/04/16 10:37:40;;;;;;;2.60;1.30;;;35.00;34.40;;;;;;5074170;27;20052;-67
2022/04/16 10:40:18;;;;;;;2.67;1.40;;;35.00;34.00;;;;;;5106667;28;20039;-67
2022/04/16 10:42:52;;;;;;;2.15;1.23;;;33.90;33.30;;;;;;5109522;27;20071;-67
2022/04/16 10:45:18;;;;;;;3.10;1.30;;;33.70;34.10;;;;;;5092015;28;20050;-67
2022/04/16 10:47:43;;;;;;;2.22;1.20;;;34.20;34.50;;;;;;5109975;28;20421;-67
2022/04/16 10:50:15;;;;;;;1.67;1.20;;;34.30;33.90;;;;;;5111254;28;20047;-68
2022/04/16 10:52:55;;;;;;;1.70;1.10;;;34.50;34.20;;;;;;5111120;28;20071;-68
2022/04/16 10:55:24;;;;;;;3.10;1.27;;;35.20;33.90;;;;;;5107922;27;20059;-71
2022/04/16 10:57:57;;;;;;;2.08;1.05;;;35.50;32.70;;;;;;5107469;28;20063;-71
2022/04/16 11:00:40;;;;;;;2.03;1.30;;;35.50;32.60;;;;;;5108635;28;20039;-70
2022/04/16 11:03:27;;;;;;;2.13;1.15;;;35.50;32.10;;;;;;5106855;28;20114;-69
2022/04/16 11:06:03;;;;;;;2.55;1.10;;;34.70;31.70;;;;;;5110291;28;20044;-70
2022/04/16 11:08:32;;;;;;;3.22;1.10;;;35.20;32.30;;;;;;5113242;27;20039;-69
2022/04/16 11:10:58;;;;;;;1.98;1.20;;;35.80;31.90;;;;;;5112734;27;20047;-69
2022/04/16 11:13:26;;;;;;;3.25;1.20;;;36.20;31.80;;;;;;5124304;27;20254;-69
2022/04/16 11:15:52;;;;;;;2.50;1.30;;;36.40;31.60;;;;;;5093446;27;20124;-70
2022/04/16 11:18:18;;;;;;;4.20;1.20;;;35.60;30.90;;;;;;5106905;28;20047;-69
2022/04/16 11:20:56;;;;;;;1.50;1.05;;;35.30;31.40;;;;;;5106347;28;20040;-70
2022/04/16 11:23:29;;;;;;;4.65;1.13;;;34.50;31.00;;;;;;5105811;28;20484;-69
2022/04/16 11:34:17;;;;;;;3.53;1.20;;;36.50;31.70;;;;;;5114325;27;20082;-69
2022/04/16 11:36:43;;;;;;;3.42;1.20;;;37.00;32.00;;;;;;5108835;28;20036;-70
2022/04/16 11:39:23;;;;;;;1.55;1.00;;;37.70;32.20;;;;;;5099611;28;20404;-69
2022/04/16 11:42:02;;;;;;;3.10;1.13;;;38.20;31.00;;;;;;5090227;28;20040;-69
2022/04/16 11:44:42;;;;;;;2.15;1.10;;;37.30;30.10;;;;;;5063466;28;20032;-70
2022/04/16 11:47:09;;;;;;;1.88;1.10;;;35.20;30.70;;;;;;5107957;28;20042;-70
2022/04/16 11:49:36;;;;;;;2.10;1.10;;;34.50;31.40;;;;;;5109978;28;20363;-70
2022/04/16 11:52:01;;;;;;;2.83;1.30;;;34.00;30.30;;;;;;5102578;28;20044;-70
2022/04/16 11:54:28;;;;;;;2.47;1.00;;;33.00;31.30;;;;;;5112092;27;20410;-69
2022/04/16 11:56:55;;;;;;;2.47;1.10;;;33.20;31.70;;;;;;5089522;27;20111;-69
2022/04/16 11:59:25;;;;;;;2.45;1.33;;;33.70;31.40;;;;;;5090268;28;20051;-69
2022/04/16 12:02:03;;;;;;;2.38;1.10;;;33.30;31.20;;;;;;5101909;28;20052;-70
2022/04/16 12:04:33;;;;;;;3.20;1.20;;;33.80;30.70;;;;;;5107898;27;20040;-69
2022/04/16 12:06:59;;;;;;;1.70;1.10;;;33.00;30.80;;;;;;5107723;27;20079;-69
2022/04/16 12:09:25;;;;;;;2.15;1.20;;;32.40;31.00;;;;;;5109139;28;20079;-69
2022/04/16 12:11:59;;;;;;;2.35;1.20;;;32.10;31.70;;;;;;5108030;28;20032;-70
2022/04/16 12:14:24;;;;;;;8.15;1.63;;;32.50;31.40;;;;;;5108734;28;20039;-70
2022/04/16 12:17:00;;;;;;;2.65;1.10;;;32.30;30.70;;;;;;5108634;28;20049;-69
2022/04/16 12:19:33;;;;;;;5.72;1.42;;;32.10;31.10;;;;;;5089556;28;20136;-70
2022/04/16 12:21:59;;;;;;;2.40;1.20;;;32.20;31.40;;;;;;5088516;28;20485;-70
2022/04/16 12:24:26;;;;;;;2.45;1.10;;;32.60;31.40;;;;;;5107231;27;20374;-69
2022/04/16 12:26:52;;;;;;;2.70;1.20;;;32.80;30.80;;;;;;5108330;28;20081;-69
2022/04/16 12:29:25;;;;;;;2.38;1.40;;;32.20;31.00;;;;;;5108371;28;20119;-67
2022/04/16 12:31:56;;;;;;;2.35;1.27;;;31.20;31.20;;;;;;5111281;28;20047;-68
2022/04/16 12:34:21;;;;;;;4.78;1.33;;;29.40;31.30;;;;;;5109147;28;20046;-68
2022/04/16 12:36:47;;;;;;;2.80;1.42;;;27.20;32.50;;;;;;5056136;28;20044;-68
2022/04/16 12:39:13;;;;;;;2.55;1.38;;;25.50;32.90;;;;;;5111197;27;20052;-68
2022/04/16 12:41:38;;;;;;;1.63;1.20;;;23.80;34.20;;;;;;5098774;28;20518;-68
2022/04/16 12:44:04;;;;;;;7.10;1.40;;;22.90;35.60;;;;;;5088816;28;20068;-68
2022/04/16 12:46:30;;;;;;;3.55;1.50;;;22.30;36.00;;;;;;5088536;28;20087;-68
2022/04/16 12:48:56;;;;;;;3.63;1.50;;;21.50;36.30;;;;;;5088563;28;20180;-69
2022/04/16 12:51:22;;;;;;;3.20;1.50;;;20.80;37.50;;;;;;5070586;28;20097;-68
2022/04/16 12:53:47;;;;;;;2.85;1.35;;;20.20;38.50;;;;;;5090633;27;20487;-68
2022/04/16 12:56:13;;;;;;;2.88;1.40;;;19.80;39.50;;;;;;5094227;27;20082;-68
2022/04/16 12:58:38;;;;;;;2.30;1.25;;;19.40;39.90;;;;;;5107298;27;20044;-68
2022/04/16 13:01:04;;;;;;;3.05;1.50;;;19.30;40.20;;;;;;5113880;27;20187;-68
2022/04/16 13:03:30;;;;;;;2.38;1.33;;;19.20;40.70;;;;;;5094441;28;20035;-68
2022/04/16 13:05:55;;;;;;;1.83;1.33;;;19.30;40.40;;;;;;5091483;28;20418;-69
2022/04/16 13:08:21;;;;;;;2.47;1.25;;;19.30;40.30;;;;;;5110520;27;20040;-69